Clear Sky Current Weather (METAR) For Manchester Airport

All times on the weather descriptions are local

Observed at 18:50 - (18 mins ago)

Clear Sky

18°C

Clear Sky
Clouds:
Wind: 180° at 14 knots
Visibility: Greater than 10km
QNH: 1010
Dew Point: 13°C
Runway in Use: Runways 23L/R

Sunrise Today: 07:05
Sunset Today: 16:40

Forecast Weather (TAF) For Manchester Airport

Issued at 00:00 - (19 hrs 8 mins ago)


Runway in Use: Likely Runways 23L/R

Forecast valid until 00:00 on Friday

METAR/TAF RAW METAR / TAF

EGCC 311850Z 18014KT CAVOK 18/13 Q1010

Weather Widget

Put weather from any of our airports on your website with our weather widget.

Find Another Search

Airport Search


Please Wait Please Wait - Loading
Close
Close

Login

Username:

Password:

Remember Me:

Remember me on this computer

Forgotten your password? Get a reset password sent to your registered e-mail address

Close

User Private Message

Subject:

Message: